createdAt,value
2018-08-25T00:00:49.042Z,100646.34
2018-08-25T00:03:21.561Z,100647.56
2018-08-25T00:05:53.605Z,100639.11
2018-08-25T00:08:26.119Z,100639.45
2018-08-25T00:10:58.632Z,100636.78
2018-08-25T00:13:30.695Z,100633.66
2018-08-25T00:16:03.218Z,100623.41
2018-08-25T00:18:35.319Z,100623.63
2018-08-25T00:21:07.420Z,100616.62
2018-08-25T00:23:39.930Z,100619.28
2018-08-25T00:26:12.473Z,100611.66
2018-08-25T00:28:44.537Z,100606.94
2018-08-25T00:31:21.544Z,100608.99
2018-08-25T00:33:55.547Z,100601.87
2018-08-25T00:36:28.122Z,100597.30
2018-08-25T00:39:00.396Z,100591.11
2018-08-25T00:41:29.553Z,100591.97
2018-08-25T00:43:58.659Z,100588.09
2018-08-25T00:46:27.777Z,100582.48
2018-08-25T00:48:56.892Z,100583.59
2018-08-25T00:51:26.020Z,100578.02
2018-08-25T00:53:55.060Z,100578.60
2018-08-25T00:56:30.491Z,100575.58
2018-08-25T00:58:59.560Z,100574.39
2018-08-25T01:01:28.670Z,100576.91
2018-08-25T01:03:57.762Z,100568.92
2018-08-25T01:06:26.859Z,100567.23
2018-08-25T01:09:02.426Z,100567.06
2018-08-25T01:11:31.526Z,100561.75
2018-08-25T01:14:00.567Z,100553.05
2018-08-25T01:16:29.653Z,100555.31
2018-08-25T01:18:58.715Z,100549.75
2018-08-25T01:21:27.892Z,100551.33
2018-08-25T01:23:57.019Z,100543.34
2018-08-25T01:26:26.114Z,100546.47
2018-08-25T01:28:55.219Z,100543.23
2018-08-25T01:31:27.792Z,100534.78
2018-08-25T01:33:57.843Z,100535.13
2018-08-25T01:36:27.216Z,100523.55
2018-08-25T01:38:56.281Z,100513.59
2018-08-25T01:41:25.488Z,100511.80
2018-08-25T01:43:54.581Z,100521.11
2018-08-25T01:46:23.646Z,100512.91
2018-08-25T01:48:52.735Z,100507.19
2018-08-25T01:51:21.824Z,100505.86
2018-08-25T01:53:50.955Z,100495.33
2018-08-25T01:56:20.010Z,100493.52
2018-08-25T01:58:49.104Z,100490.28
2018-08-25T02:01:18.196Z,100488.95
2018-08-25T02:03:47.243Z,100490.17
2018-08-25T02:06:16.292Z,100479.88
2018-08-25T02:08:45.377Z,100473.70
2018-08-25T02:11:14.437Z,100472.37
2018-08-25T02:13:43.515Z,100472.13
2018-08-25T02:16:12.629Z,100468.24
2018-08-25T02:18:41.781Z,100463.50
2018-08-25T02:21:10.869Z,100464.09
2018-08-25T02:23:39.968Z,100462.27
2018-08-25T02:26:09.028Z,100461.88
2018-08-25T02:28:38.135Z,100455.84
2018-08-25T02:31:07.260Z,100446.37
2018-08-25T02:33:36.357Z,100459.45
2018-08-25T02:36:05.479Z,100457.12
2018-08-25T02:38:34.570Z,100462.55
2018-08-25T02:41:03.741Z,100459.11
2018-08-25T02:43:32.867Z,100448.09
2018-08-25T02:46:02.205Z,100460.06
2018-08-25T02:48:31.286Z,100458.23
2018-08-25T02:51:00.355Z,100465.16
2018-08-25T02:53:29.521Z,100467.69
2018-08-25T02:55:58.663Z,100466.51
2018-08-25T02:58:27.786Z,100465.03
2018-08-25T03:00:56.869Z,100466.13
2018-08-25T03:03:25.931Z,100461.89
2018-08-25T03:05:55.020Z,100456.05
2018-08-25T03:08:24.293Z,100457.03
2018-08-25T03:10:53.399Z,100465.67
2018-08-25T03:13:22.595Z,100459.55
2018-08-25T03:15:53.162Z,100458.22
2018-08-25T03:18:22.223Z,100461.84
2018-08-25T03:20:51.347Z,100460.22
2018-08-25T03:23:20.419Z,100454.26
2018-08-25T03:25:49.514Z,100457.36
2018-08-25T03:28:18.570Z,100471.61
2018-08-25T03:30:47.699Z,100466.56
2018-08-25T03:33:16.770Z,100456.66
2018-08-25T03:35:45.893Z,100455.03
2018-08-25T03:38:14.956Z,100452.83
2018-08-25T03:40:44.058Z,100449.98
2018-08-25T03:43:30.548Z,100451.48
2018-08-25T03:46:01.420Z,100448.42
2018-08-25T03:48:30.514Z,100456.02
2018-08-25T03:50:59.604Z,100455.42
2018-08-25T03:53:28.712Z,100453.73
2018-08-25T03:55:57.811Z,100448.90
2018-08-25T03:58:26.870Z,100438.99
2018-08-25T04:00:55.946Z,100439.08
2018-08-25T04:03:25.026Z,100440.95
2018-08-25T04:05:54.074Z,100444.92
2018-08-25T04:08:23.111Z,100450.21
2018-08-25T04:10:52.213Z,100442.83
2018-08-25T04:13:21.278Z,100442.45
2018-08-25T04:15:50.389Z,100447.34
2018-08-25T04:18:19.529Z,100437.25
2018-08-25T04:20:48.610Z,100440.46
2018-08-25T04:23:17.683Z,100439.08
2018-08-25T04:25:46.745Z,100438.91
2018-08-25T04:28:15.935Z,100441.55
2018-08-25T04:30:45.051Z,100435.89
2018-08-25T04:33:14.200Z,100435.62
2018-08-25T04:35:43.256Z,100436.17
2018-08-25T04:38:12.392Z,100445.80
2018-08-25T04:40:41.503Z,100455.38
2018-08-25T04:43:10.559Z,100452.91
2018-08-25T04:45:39.644Z,100449.95
2018-08-25T04:48:08.729Z,100466.36
2018-08-25T04:50:37.831Z,100458.92
2018-08-25T04:53:06.915Z,100466.86
2018-08-25T04:55:36.011Z,100469.23
2018-08-25T04:58:05.140Z,100467.77
2018-08-25T05:00:34.234Z,100464.16
2018-08-25T05:03:03.500Z,100471.15
2018-08-25T05:05:32.602Z,100470.00
2018-08-25T05:08:01.706Z,100469.27
2018-08-25T05:10:30.751Z,100472.08
2018-08-25T05:12:59.853Z,100475.82
2018-08-25T05:15:28.963Z,100474.50
2018-08-25T05:17:58.018Z,100477.11
2018-08-25T05:20:27.103Z,100479.93
2018-08-25T05:22:56.158Z,100478.98
2018-08-25T05:25:25.325Z,100478.84
2018-08-25T05:27:54.414Z,100478.19
2018-08-25T05:30:23.549Z,100490.00
2018-08-25T05:32:59.197Z,100489.29
2018-08-25T05:35:28.386Z,100491.16
2018-08-25T05:37:57.491Z,100496.85
2018-08-25T05:40:26.573Z,100505.16
2018-08-25T05:42:55.645Z,100497.05
2018-08-25T05:45:24.755Z,100498.27
2018-08-25T05:47:53.916Z,100495.70
2018-08-25T05:50:23.080Z,100503.47
2018-08-25T05:52:52.188Z,100499.87
2018-08-25T05:55:21.433Z,100503.11
2018-08-25T05:57:51.162Z,100506.44
2018-08-25T06:00:20.376Z,100506.92
2018-08-25T06:02:49.523Z,100508.42
2018-08-25T06:05:18.726Z,100512.10
2018-08-25T06:07:47.978Z,100524.87
2018-08-25T06:10:17.062Z,100522.79
2018-08-25T06:12:46.152Z,100515.63
2018-08-25T06:15:15.687Z,100525.48
2018-08-25T06:17:44.912Z,100532.50
2018-08-25T06:20:13.942Z,100532.46
2018-08-25T06:22:43.036Z,100525.77
2018-08-25T06:25:12.099Z,100540.56
2018-08-25T06:27:41.171Z,100541.33
2018-08-25T06:30:10.276Z,100539.05
2018-08-25T06:32:39.368Z,100546.44
2018-08-25T06:35:08.469Z,100547.40
2018-08-25T06:37:37.548Z,100542.20
2018-08-25T06:40:06.647Z,100546.22
2018-08-25T06:42:35.720Z,100547.95
2018-08-25T06:45:04.889Z,100545.67
2018-08-25T06:47:33.951Z,100541.52
2018-08-25T06:50:03.084Z,100541.16
2018-08-25T06:52:32.159Z,100544.42
2018-08-25T06:55:01.249Z,100548.58
2018-08-25T06:57:30.377Z,100538.03
2018-08-25T06:59:59.506Z,100549.20
2018-08-25T07:02:28.581Z,100550.89
2018-08-25T07:04:57.705Z,100546.17
2018-08-25T07:07:26.836Z,100548.76
2018-08-25T07:09:55.907Z,100556.23
2018-08-25T07:12:25.023Z,100565.50
2018-08-25T07:14:54.120Z,100561.91
2018-08-25T07:17:23.235Z,100562.27
2018-08-25T07:19:52.407Z,100567.11
2018-08-25T07:22:21.598Z,100572.14
2018-08-25T07:24:50.874Z,100571.36
2018-08-25T07:27:20.077Z,100574.22
2018-08-25T07:29:49.132Z,100577.05
2018-08-25T07:32:18.250Z,100581.41
2018-08-25T07:34:47.357Z,100582.56
2018-08-25T07:37:16.500Z,100581.61
2018-08-25T07:39:45.602Z,100576.40
2018-08-25T07:42:14.691Z,100582.75
2018-08-25T07:44:43.814Z,100593.72
2018-08-25T07:47:12.968Z,100592.80
2018-08-25T07:49:42.252Z,100597.38
2018-08-25T07:52:11.259Z,100591.95
2018-08-25T07:54:40.329Z,100594.91
2018-08-25T07:57:09.440Z,100599.82
2018-08-25T07:59:38.581Z,100590.63
2018-08-25T08:02:07.788Z,100598.50
2018-08-25T08:04:36.877Z,100597.34
2018-08-25T08:07:06.008Z,100611.35
2018-08-25T08:09:35.103Z,100605.66
2018-08-25T08:12:04.175Z,100605.63
2018-08-25T08:14:33.302Z,100609.05
2018-08-25T08:17:02.383Z,100607.82
2018-08-25T08:19:31.489Z,100608.85
2018-08-25T08:22:00.616Z,100604.84
2018-08-25T08:24:29.681Z,100615.05
2018-08-25T08:26:58.825Z,100612.14
2018-08-25T08:29:27.911Z,100609.68
2018-08-25T08:31:57.021Z,100618.67
2018-08-25T08:34:26.117Z,100620.26
2018-08-25T08:36:55.214Z,100615.61
2018-08-25T08:39:24.419Z,100627.91
2018-08-25T08:41:53.474Z,100628.56
2018-08-25T08:44:22.591Z,100635.27
2018-08-25T08:46:51.806Z,100627.30
2018-08-25T08:49:20.994Z,100626.45
2018-08-25T08:51:50.110Z,100642.77
2018-08-25T08:54:19.242Z,100642.90
2018-08-25T08:56:49.475Z,100632.76
2018-08-25T08:59:18.611Z,100637.42
2018-08-25T09:01:47.692Z,100644.52
2018-08-25T09:04:16.776Z,100645.23
2018-08-25T09:06:45.845Z,100651.31
2018-08-25T09:09:14.924Z,100661.47
2018-08-25T09:11:44.019Z,100655.19
2018-08-25T09:14:13.146Z,100655.88
2018-08-25T09:16:42.267Z,100669.66
2018-08-25T09:19:11.364Z,100675.73
2018-08-25T09:21:40.455Z,100678.00
2018-08-25T09:24:09.544Z,100678.55
2018-08-25T09:26:38.632Z,100675.14
2018-08-25T09:29:08.049Z,100673.64
2018-08-25T09:31:37.230Z,100684.86
2018-08-25T09:34:06.352Z,100672.81
2018-08-25T09:36:35.926Z,100679.03
2018-08-25T09:39:07.946Z,100686.48
2018-08-25T09:41:37.152Z,100678.02
2018-08-25T09:44:06.262Z,100685.61
2018-08-25T09:46:35.475Z,100688.13
2018-08-25T09:49:04.576Z,100673.41
2018-08-25T09:51:33.682Z,100684.37
2018-08-25T09:54:02.792Z,100684.49
2018-08-25T09:56:31.958Z,100688.02
2018-08-25T09:59:01.276Z,100684.63
2018-08-25T10:01:32.303Z,100693.87
2018-08-25T10:04:01.436Z,100693.29
2018-08-25T10:06:30.504Z,100703.11
2018-08-25T10:08:59.601Z,100698.53
2018-08-25T10:11:28.672Z,100706.08
2018-08-25T10:13:57.791Z,100701.73
2018-08-25T10:16:26.942Z,100703.60
2018-08-25T10:18:56.045Z,100707.27
2018-08-25T10:21:25.148Z,100705.08
2018-08-25T10:23:54.211Z,100715.23
2018-08-25T10:26:23.317Z,100710.69
2018-08-25T10:28:52.421Z,100703.03
2018-08-25T10:31:21.576Z,100703.73
2018-08-25T10:33:50.637Z,100709.64
2018-08-25T10:36:19.799Z,100701.19
2018-08-25T10:38:48.860Z,100708.72
2018-08-25T10:41:17.924Z,100708.32
2018-08-25T10:43:47.015Z,100707.28
2018-08-25T10:46:16.102Z,100713.12
2018-08-25T10:48:45.252Z,100711.44
2018-08-25T10:51:14.353Z,100706.12
2018-08-25T10:53:43.486Z,100708.61
2018-08-25T10:56:12.572Z,100714.07
2018-08-25T10:58:41.831Z,100711.15
2018-08-25T11:01:10.978Z,100715.97
2018-08-25T11:03:40.032Z,100715.57
2018-08-25T11:06:09.180Z,100719.21
2018-08-25T11:08:38.332Z,100715.63
2018-08-25T11:11:07.378Z,100721.06
2018-08-25T11:13:36.465Z,100723.74
2018-08-25T11:16:05.565Z,100716.95
2018-08-25T11:18:34.608Z,100732.56
2018-08-25T11:21:03.742Z,100726.57
2018-08-25T11:23:32.876Z,100731.45
2018-08-25T11:26:01.947Z,100723.19
2018-08-25T11:28:31.083Z,100717.97
2018-08-25T11:31:00.126Z,100716.20
2018-08-25T11:33:29.215Z,100722.80
2018-08-25T11:35:58.319Z,100719.74
2018-08-25T11:38:27.420Z,100716.34
2018-08-25T11:40:56.616Z,100722.63
2018-08-25T11:43:25.783Z,100719.91
2018-08-25T11:45:54.834Z,100723.09
2018-08-25T11:48:23.896Z,100718.37
2018-08-25T11:50:52.965Z,100722.06
2018-08-25T11:53:22.023Z,100722.23
2018-08-25T11:55:51.113Z,100716.81
2018-08-25T11:58:20.203Z,100715.87
2018-08-25T12:00:49.299Z,100722.61
2018-08-25T12:03:18.364Z,100720.44
2018-08-25T12:05:47.433Z,100717.19
2018-08-25T12:08:16.508Z,100723.16
2018-08-25T12:10:45.613Z,100719.66
2018-08-25T12:13:14.692Z,100725.45
2018-08-25T12:15:43.773Z,100719.41
2018-08-25T12:18:12.887Z,100721.93
2018-08-25T12:20:42.022Z,100722.44
2018-08-25T12:23:11.206Z,100725.66
2018-08-25T12:25:40.331Z,100740.91
2018-08-25T12:28:09.739Z,100735.06
2018-08-25T12:30:38.855Z,100741.33
2018-08-25T12:33:07.952Z,100734.41
2018-08-25T12:35:37.065Z,100737.48
2018-08-25T12:38:06.175Z,100754.22
2018-08-25T12:40:35.287Z,100755.44
2018-08-25T12:43:04.418Z,100745.50
2018-08-25T12:45:33.530Z,100753.13
2018-08-25T12:48:02.620Z,100760.60
2018-08-25T12:50:31.689Z,100759.34
2018-08-25T12:53:00.841Z,100760.84
2018-08-25T12:55:30.052Z,100763.86
2018-08-25T12:57:59.096Z,100764.41
2018-08-25T13:00:28.172Z,100756.30
2018-08-25T13:02:57.328Z,100764.52
2018-08-25T13:05:26.392Z,100770.88
2018-08-25T13:07:55.580Z,100755.06
2018-08-25T13:10:24.754Z,100757.39
2018-08-25T13:12:53.903Z,100763.16
2018-08-25T13:15:22.997Z,100762.62
2018-08-25T13:17:53.177Z,100759.70
2018-08-25T13:20:22.370Z,100760.77
2018-08-25T13:22:51.534Z,100765.09
2018-08-25T13:25:20.714Z,100766.75
2018-08-25T13:27:49.931Z,100780.33
2018-08-25T13:30:19.121Z,100782.77
2018-08-25T13:32:48.305Z,100782.67
2018-08-25T13:35:17.434Z,100777.08
2018-08-25T13:37:46.527Z,100794.39
2018-08-25T13:40:15.619Z,100790.13
2018-08-25T13:42:44.690Z,100797.11
2018-08-25T13:45:15.135Z,100788.84
2018-08-25T13:47:44.462Z,100774.77
2018-08-25T13:50:13.628Z,100790.39
2018-08-25T13:52:43.111Z,100783.14
2018-08-25T13:55:13.283Z,100786.09
2018-08-25T13:57:42.627Z,100790.17
2018-08-25T14:00:11.888Z,100788.89
2018-08-25T14:02:40.994Z,100795.68
2018-08-25T14:05:10.174Z,100804.61
2018-08-25T14:07:39.373Z,100800.92
2018-08-25T14:10:08.609Z,100808.78
2018-08-25T14:12:38.131Z,100806.48
2018-08-25T14:15:07.649Z,100809.40
2018-08-25T14:17:36.880Z,100810.13
2018-08-25T14:20:06.245Z,100810.55
2018-08-25T14:22:35.582Z,100814.52
2018-08-25T14:25:05.114Z,100816.14
2018-08-25T14:27:34.325Z,100821.42
2018-08-25T14:30:03.887Z,100820.92
2018-08-25T14:32:33.172Z,100818.79
2018-08-25T14:35:02.369Z,100830.45
2018-08-25T14:37:31.704Z,100832.38
2018-08-25T14:40:00.885Z,100830.61
2018-08-25T14:42:30.139Z,100829.66
2018-08-25T14:44:59.327Z,100835.58
2018-08-25T14:47:28.466Z,100837.27
2018-08-25T14:49:57.844Z,100849.61
2018-08-25T14:52:26.980Z,100855.73
2018-08-25T14:54:56.184Z,100856.02
2018-08-25T14:57:26.125Z,100863.89
2018-08-25T14:59:55.387Z,100870.16
2018-08-25T15:02:24.577Z,100875.52
2018-08-25T15:04:53.762Z,100879.92
2018-08-25T15:07:23.002Z,100885.31
2018-08-25T15:09:52.111Z,100881.25
2018-08-25T15:12:21.191Z,100882.17
2018-08-25T15:14:50.311Z,100889.71
2018-08-25T15:17:19.504Z,100882.30
2018-08-25T15:19:48.620Z,100886.12
2018-08-25T15:22:17.715Z,100892.00
2018-08-25T15:24:46.844Z,100887.47
2018-08-25T15:27:15.981Z,100889.17
2018-08-25T15:29:45.061Z,100895.42
2018-08-25T15:32:14.172Z,100897.98
2018-08-25T15:34:43.298Z,100892.78
2018-08-25T15:37:12.400Z,100888.98
2018-08-25T15:39:41.562Z,100891.24
2018-08-25T15:42:10.731Z,100898.66
2018-08-25T15:44:39.820Z,100899.11
2018-08-25T15:47:08.916Z,100904.86
2018-08-25T15:49:38.094Z,100902.88
2018-08-25T15:52:07.215Z,100898.19
2018-08-25T15:54:36.358Z,100900.55
2018-08-25T15:57:05.460Z,100899.93
2018-08-25T15:59:34.869Z,100895.61
2018-08-25T16:02:03.978Z,100896.59
2018-08-25T16:04:33.104Z,100898.55
2018-08-25T16:07:02.220Z,100901.81
2018-08-25T16:09:31.282Z,100917.03
2018-08-25T16:12:00.391Z,100916.88
2018-08-25T16:14:29.770Z,100920.98
2018-08-25T16:16:58.888Z,100913.14
2018-08-25T16:19:28.003Z,100922.62
2018-08-25T16:21:57.052Z,100922.72
2018-08-25T16:24:26.149Z,100927.65
2018-08-25T16:26:55.313Z,100930.55
2018-08-25T16:29:24.376Z,100932.45
2018-08-25T16:31:53.462Z,100929.48
2018-08-25T16:34:22.533Z,100931.02
2018-08-25T16:36:51.638Z,100933.78
2018-08-25T16:39:20.786Z,100928.91
2018-08-25T16:41:49.964Z,100927.69
2018-08-25T16:44:19.092Z,100928.66
2018-08-25T16:46:48.273Z,100932.13
2018-08-25T16:49:17.451Z,100929.77
2018-08-25T16:51:46.551Z,100931.00
2018-08-25T16:54:15.641Z,100926.02
2018-08-25T16:56:44.734Z,100931.86
2018-08-25T16:59:13.843Z,100936.59
2018-08-25T17:01:43.218Z,100934.03
2018-08-25T17:04:12.360Z,100940.69
2018-08-25T17:06:41.589Z,100940.48
2018-08-25T17:09:11.660Z,100943.48
2018-08-25T17:11:40.993Z,100949.34
2018-08-25T17:14:10.107Z,100951.32
2018-08-25T17:16:39.150Z,100964.14
2018-08-25T17:19:08.289Z,100955.88
2018-08-25T17:21:37.410Z,100960.33
2018-08-25T17:24:06.595Z,100958.67
2018-08-25T17:26:35.690Z,100965.25
2018-08-25T17:29:05.392Z,100970.58
2018-08-25T17:31:34.706Z,100972.09
2018-08-25T17:34:03.899Z,100974.28
2018-08-25T17:36:33.028Z,100983.03
2018-08-25T17:39:02.133Z,100982.94
2018-08-25T17:41:31.194Z,100991.80
2018-08-25T17:44:00.323Z,100990.06
2018-08-25T17:46:29.426Z,100993.36
2018-08-25T17:48:58.528Z,100998.14
2018-08-25T17:51:27.659Z,101000.78
2018-08-25T17:53:56.722Z,101000.70
2018-08-25T17:56:25.818Z,101010.07
2018-08-25T17:58:54.930Z,101013.97
2018-08-25T18:01:24.111Z,101018.05
2018-08-25T18:03:53.271Z,101017.66
2018-08-25T18:06:22.365Z,101027.91
2018-08-25T18:08:51.460Z,101021.64
2018-08-25T18:11:20.569Z,101025.94
2018-08-25T18:13:49.694Z,101031.16
2018-08-25T18:16:18.789Z,101036.63
2018-08-25T18:18:47.946Z,101043.17
2018-08-25T18:21:17.045Z,101035.75
2018-08-25T18:23:46.130Z,101046.97
2018-08-25T18:26:15.251Z,101045.55
2018-08-25T18:28:44.612Z,101049.03
2018-08-25T18:31:13.719Z,101054.57
2018-08-25T18:33:42.867Z,101059.66
2018-08-25T18:36:11.980Z,101067.36
2018-08-25T18:38:41.292Z,101066.54
2018-08-25T18:41:10.465Z,101061.59
2018-08-25T18:43:39.600Z,101068.23
2018-08-25T18:46:08.882Z,101070.48
2018-08-25T18:48:38.004Z,101066.99
2018-08-25T18:51:07.085Z,101078.95
2018-08-25T18:53:36.185Z,101080.14
2018-08-25T18:56:05.358Z,101079.95
2018-08-25T18:58:34.790Z,101081.29
2018-08-25T19:01:04.003Z,101085.26
2018-08-25T19:03:33.219Z,101086.27
2018-08-25T19:06:02.363Z,101086.16
2018-08-25T19:08:31.532Z,101086.52
2018-08-25T19:11:00.640Z,101092.00
2018-08-25T19:13:29.775Z,101092.27
2018-08-25T19:16:02.072Z,101098.98
2018-08-25T19:18:32.096Z,101099.14
2018-08-25T19:21:01.148Z,101105.77
2018-08-25T19:23:30.302Z,101105.95
2018-08-25T19:25:59.377Z,101105.28
2018-08-25T19:28:28.556Z,101113.16
2018-08-25T19:30:57.803Z,101113.97
2018-08-25T19:33:26.931Z,101108.86
2018-08-25T19:35:56.063Z,101115.84
2018-08-25T19:38:25.225Z,101125.30
2018-08-25T19:40:54.348Z,101124.67
2018-08-25T19:43:23.378Z,101130.78
2018-08-25T19:45:52.513Z,101134.94
2018-08-25T19:48:21.619Z,101135.46
2018-08-25T19:50:50.697Z,101137.40
2018-08-25T19:53:19.832Z,101134.88
2018-08-25T19:55:48.993Z,101140.28
2018-08-25T19:58:18.098Z,101141.48
2018-08-25T20:00:47.199Z,101142.56
2018-08-25T20:03:16.299Z,101148.24
2018-08-25T20:05:45.417Z,101147.66
2018-08-25T20:08:14.568Z,101143.36
2018-08-25T20:10:43.692Z,101152.19
2018-08-25T20:13:12.802Z,101151.20
2018-08-25T20:15:42.010Z,101155.36
2018-08-25T20:18:11.095Z,101157.23
2018-08-25T20:20:46.786Z,101154.83
2018-08-25T20:23:15.786Z,101158.89
2018-08-25T20:25:44.980Z,101166.39
2018-08-25T20:28:14.076Z,101164.53
2018-08-25T20:30:43.290Z,101165.54
2018-08-25T20:33:12.296Z,101169.69
2018-08-25T20:35:41.421Z,101169.39
2018-08-25T20:38:10.534Z,101166.53
2018-08-25T20:40:39.697Z,101168.69
2018-08-25T20:43:08.825Z,101168.06
2018-08-25T20:45:38.000Z,101167.36
2018-08-25T20:48:06.700Z,101167.37
2018-08-25T20:50:35.846Z,101170.64
2018-08-25T20:53:04.941Z,101179.80
2018-08-25T20:55:34.027Z,101172.59
2018-08-25T20:58:03.115Z,101174.08
2018-08-25T21:00:32.176Z,101173.88
2018-08-25T21:03:01.330Z,101167.70
2018-08-25T21:05:30.433Z,101174.08
2018-08-25T21:07:59.820Z,101170.81
2018-08-25T21:10:28.913Z,101174.20
2018-08-25T21:12:58.021Z,101180.58
2018-08-25T21:15:27.114Z,101179.50
2018-08-25T21:17:56.662Z,101178.55
2018-08-25T21:20:25.728Z,101180.42
2018-08-25T21:22:54.870Z,101181.37
2018-08-25T21:25:24.232Z,101180.42
2018-08-25T21:27:53.391Z,101175.53
2018-08-25T21:30:22.487Z,101174.73
2018-08-25T21:32:51.562Z,101178.26
2018-08-25T21:35:20.648Z,101169.67
2018-08-25T21:37:49.765Z,101174.20
2018-08-25T21:40:18.860Z,101176.23
2018-08-25T21:42:47.955Z,101177.63
2018-08-25T21:45:17.093Z,101178.96
2018-08-25T21:47:46.197Z,101182.10
2018-08-25T21:50:15.261Z,101186.08
2018-08-25T21:52:44.372Z,101194.03
2018-08-25T21:55:13.497Z,101191.72
2018-08-25T21:57:42.609Z,101192.53
2018-08-25T22:00:11.760Z,101192.77
2018-08-25T22:02:40.826Z,101192.81
2018-08-25T22:05:09.977Z,101193.46
2018-08-25T22:07:39.034Z,101189.95
2018-08-25T22:10:08.175Z,101182.61
2018-08-25T22:12:37.280Z,101185.02
2018-08-25T22:15:06.501Z,101182.29
2018-08-25T22:17:35.674Z,101182.53
2018-08-25T22:20:06.023Z,101189.23
2018-08-25T22:22:35.168Z,101190.18
2018-08-25T22:25:04.270Z,101188.86
2018-08-25T22:27:33.350Z,101189.55
2018-08-25T22:30:02.490Z,101192.28
2018-08-25T22:32:31.569Z,101193.69
2018-08-25T22:35:00.692Z,101189.00
2018-08-25T22:37:29.820Z,101184.09
2018-08-25T22:39:58.918Z,101189.70
2018-08-25T22:42:28.050Z,101188.52
2018-08-25T22:44:57.090Z,101190.45
2018-08-25T22:47:26.190Z,101186.27
2018-08-25T22:49:55.273Z,101187.66
2018-08-25T22:52:29.449Z,101191.38
2018-08-25T22:54:58.634Z,101194.59
2018-08-25T22:57:27.737Z,101192.85
2018-08-25T22:59:56.872Z,101192.93
2018-08-25T23:02:29.646Z,101200.57
2018-08-25T23:04:58.780Z,101201.02
2018-08-25T23:07:27.965Z,101205.48
2018-08-25T23:09:57.094Z,101205.72
2018-08-25T23:12:26.198Z,101206.51
2018-08-25T23:14:55.340Z,101206.40
2018-08-25T23:17:24.490Z,101202.34
2018-08-25T23:19:53.547Z,101207.30
2018-08-25T23:22:22.650Z,101207.79
2018-08-25T23:24:51.716Z,101210.97
2018-08-25T23:27:20.794Z,101211.12
2018-08-25T23:29:49.981Z,101207.94
2018-08-25T23:32:19.062Z,101210.17
2018-08-25T23:34:48.239Z,101213.42
2018-08-25T23:37:17.351Z,101211.34
2018-08-25T23:39:46.447Z,101206.13
2018-08-25T23:42:15.574Z,101217.33
2018-08-25T23:44:44.710Z,101216.63
2018-08-25T23:47:13.766Z,101221.59
2018-08-25T23:49:42.852Z,101221.59
2018-08-25T23:52:11.959Z,101216.37
2018-08-25T23:54:41.057Z,101227.59
2018-08-25T23:57:10.182Z,101226.41
2018-08-25T23:59:39.309Z,101219.80
